sensor_id;sensor_type;location;lat;lon;timestamp;pressure;altitude;pressure_sealevel;temperature;humidity
61119;BME280;51448;51.660;5.824;2023-03-22T00:00:01;100897.81;;;9.97;100.00
61119;BME280;51448;51.660;5.824;2023-03-22T00:02:42;100898.78;;;9.93;100.00
61119;BME280;51448;51.660;5.824;2023-03-22T00:05:10;100895.34;;;9.91;100.00
61119;BME280;51448;51.660;5.824;2023-03-22T00:07:37;100891.88;;;9.89;100.00
61119;BME280;51448;51.660;5.824;2023-03-22T00:10:07;100897.19;;;9.86;100.00
61119;BME280;51448;51.660;5.824;2023-03-22T00:12:36;100890.22;;;9.85;100.00
61119;BME280;51448;51.660;5.824;2023-03-22T00:15:04;100890.28;;;9.82;100.00
61119;BME280;51448;51.660;5.824;2023-03-22T00:17:32;100888.56;;;9.81;100.00
61119;BME280;51448;51.660;5.824;2023-03-22T00:20:00;100889.53;;;9.78;100.00
61119;BME280;51448;51.660;5.824;2023-03-22T00:22:27;100883.47;;;9.75;100.00
61119;BME280;51448;51.660;5.824;2023-03-22T00:24:55;100876.56;;;9.71;100.00
61119;BME280;51448;51.660;5.824;2023-03-22T00:27:23;100871.34;;;9.69;100.00
61119;BME280;51448;51.660;5.824;2023-03-22T00:29:51;100875.75;;;9.67;100.00
61119;BME280;51448;51.660;5.824;2023-03-22T00:32:20;100867.06;;;9.65;100.00
61119;BME280;51448;51.660;5.824;2023-03-22T00:34:49;100861.91;;;9.62;100.00
61119;BME280;51448;51.660;5.824;2023-03-22T00:37:17;100865.44;;;9.59;100.00
61119;BME280;51448;51.660;5.824;2023-03-22T00:39:45;100859.41;;;9.56;100.00
61119;BME280;51448;51.660;5.824;2023-03-22T00:42:13;100856.84;;;9.53;100.00
61119;BME280;51448;51.660;5.824;2023-03-22T00:44:40;100855.13;;;9.52;100.00
61119;BME280;51448;51.660;5.824;2023-03-22T00:47:08;100852.56;;;9.49;100.00
61119;BME280;51448;51.660;5.824;2023-03-22T00:49:36;100840.38;;;9.46;100.00
61119;BME280;51448;51.660;5.824;2023-03-22T00:52:04;100837.81;;;9.43;100.00
61119;BME280;51448;51.660;5.824;2023-03-22T00:54:32;100827.41;;;9.40;100.00
61119;BME280;51448;51.660;5.824;2023-03-22T00:57:00;100829.16;;;9.39;100.00
61119;BME280;51448;51.660;5.824;2023-03-22T00:59:29;100827.44;;;9.37;100.00
61119;BME280;51448;51.660;5.824;2023-03-22T01:01:59;100822.25;;;9.35;100.00
61119;BME280;51448;51.660;5.824;2023-03-22T01:04:27;100815.28;;;9.34;100.00
61119;BME280;51448;51.660;5.824;2023-03-22T01:06:57;100812.66;;;9.33;100.00
61119;BME280;51448;51.660;5.824;2023-03-22T01:09:30;100821.47;;;9.32;100.00
61119;BME280;51448;51.660;5.824;2023-03-22T01:12:00;100812.66;;;9.33;100.00
61119;BME280;51448;51.660;5.824;2023-03-22T01:14:28;100803.13;;;9.30;100.00
61119;BME280;51448;51.660;5.824;2023-03-22T01:16:58;100798.72;;;9.31;100.00
61119;BME280;51448;51.660;5.824;2023-03-22T01:19:25;100807.50;;;9.30;100.00
61119;BME280;51448;51.660;5.824;2023-03-22T01:21:54;100796.09;;;9.31;100.00
61119;BME280;51448;51.660;5.824;2023-03-22T01:24:22;100789.13;;;9.30;100.00
61119;BME280;51448;51.660;5.824;2023-03-22T01:26:50;100795.22;;;9.32;100.00
61119;BME280;51448;51.660;5.824;2023-03-22T01:29:18;100797.84;;;9.32;100.00
61119;BME280;51448;51.660;5.824;2023-03-22T01:31:46;100785.56;;;9.32;100.00
61119;BME280;51448;51.660;5.824;2023-03-22T01:34:14;100781.19;;;9.33;100.00
61119;BME280;51448;51.660;5.824;2023-03-22T01:36:41;100778.56;;;9.33;100.00
61119;BME280;51448;51.660;5.824;2023-03-22T01:39:09;100768.97;;;9.32;100.00
61119;BME280;51448;51.660;5.824;2023-03-22T01:41:38;100758.47;;;9.32;100.00
61119;BME280;51448;51.660;5.824;2023-03-22T01:44:16;100753.19;;;9.33;100.00
61119;BME280;51448;51.660;5.824;2023-03-22T01:46:48;100747.06;;;9.33;100.00
61119;BME280;51448;51.660;5.824;2023-03-22T01:49:27;100741.78;;;9.34;100.00
61119;BME280;51448;51.660;5.824;2023-03-22T01:52:04;100732.09;;;9.36;100.00
61119;BME280;51448;51.660;5.824;2023-03-22T01:54:51;100722.47;;;9.37;100.00
61119;BME280;51448;51.660;5.824;2023-03-22T01:57:30;100725.06;;;9.38;100.00
61119;BME280;51448;51.660;5.824;2023-03-22T02:00:08;100725.00;;;9.41;100.00
61119;BME280;51448;51.660;5.824;2023-03-22T02:03:19;100710.97;;;9.41;100.00
61119;BME280;51448;51.660;5.824;2023-03-22T02:05:55;100711.88;;;9.41;100.00
61119;BME280;51448;51.660;5.824;2023-03-22T02:08:25;100711.88;;;9.41;100.00
61119;BME280;51448;51.660;5.824;2023-03-22T02:10:59;100702.13;;;9.45;100.00
61119;BME280;51448;51.660;5.824;2023-03-22T02:13:40;100695.13;;;9.45;100.00
61119;BME280;51448;51.660;5.824;2023-03-22T02:31:30;100674.47;;;9.66;100.00
61119;BME280;51448;51.660;5.824;2023-03-22T02:34:55;100676.97;;;9.71;100.00
61119;BME280;51448;51.660;5.824;2023-03-22T02:43:41;100674.03;;;9.81;100.00
61119;BME280;51448;51.660;5.824;2023-03-22T02:46:43;100668.66;;;9.86;100.00
61119;BME280;51448;51.660;5.824;2023-03-22T02:52:06;100667.75;;;9.87;100.00
61119;BME280;51448;51.660;5.824;2023-03-22T02:54:55;100660.59;;;9.92;100.00
61119;BME280;51448;51.660;5.824;2023-03-22T02:58:13;100670.19;;;9.95;100.00
61119;BME280;51448;51.660;5.824;2023-03-22T03:00:47;100663.16;;;9.95;100.00
61119;BME280;51448;51.660;5.824;2023-03-22T03:03:20;100664.81;;;9.98;100.00
61119;BME280;51448;51.660;5.824;2023-03-22T03:05:56;100656.88;;;10.01;100.00
61119;BME280;51448;51.660;5.824;2023-03-22T03:08:27;100656.88;;;10.01;100.00
61119;BME280;51448;51.660;5.824;2023-03-22T03:10:59;100657.81;;;9.98;100.00
61119;BME280;51448;51.660;5.824;2023-03-22T03:13:28;100656.06;;;9.99;100.00
61119;BME280;51448;51.660;5.824;2023-03-22T03:15:58;100647.19;;;10.03;100.00
61119;BME280;51448;51.660;5.824;2023-03-22T03:22:18;100648.88;;;10.04;100.00
61119;BME280;51448;51.660;5.824;2023-03-22T03:25:04;100639.22;;;10.04;100.00
61119;BME280;51448;51.660;5.824;2023-03-22T03:28:03;100637.41;;;10.06;100.00
61119;BME280;51448;51.660;5.824;2023-03-22T03:30:48;100640.88;;;10.08;100.00
61119;BME280;51448;51.660;5.824;2023-03-22T03:33:33;100642.59;;;10.10;100.00
61119;BME280;51448;51.660;5.824;2023-03-22T03:36:08;100649.56;;;10.11;100.00
61119;BME280;51448;51.660;5.824;2023-03-22T03:38:45;100651.31;;;10.12;100.00
61119;BME280;51448;51.660;5.824;2023-03-22T03:41:20;100635.53;;;10.12;100.00
61119;BME280;51448;51.660;5.824;2023-03-22T03:43:52;100632.88;;;10.13;100.00
61119;BME280;51448;51.660;5.824;2023-03-22T03:46:22;100631.13;;;10.12;100.00
61119;BME280;51448;51.660;5.824;2023-03-22T03:48:51;100623.22;;;10.14;100.00
61119;BME280;51448;51.660;5.824;2023-03-22T03:51:21;100628.47;;;10.14;100.00
61119;BME280;51448;51.660;5.824;2023-03-22T03:53:50;100628.50;;;10.12;100.00
61119;BME280;51448;51.660;5.824;2023-03-22T03:56:19;100630.25;;;10.13;100.00
61119;BME280;51448;51.660;5.824;2023-03-22T03:58:48;100634.63;;;10.13;100.00
61119;BME280;51448;51.660;5.824;2023-03-22T04:01:16;100632.81;;;10.15;100.00
61119;BME280;51448;51.660;5.824;2023-03-22T04:03:59;100631.97;;;10.13;100.00
61119;BME280;51448;51.660;5.824;2023-03-22T04:06:54;100639.94;;;10.11;100.00
61119;BME280;51448;51.660;5.824;2023-03-22T04:09:29;100632.91;;;10.12;100.00
61119;BME280;51448;51.660;5.824;2023-03-22T04:12:07;100642.59;;;10.10;100.00
61119;BME280;51448;51.660;5.824;2023-03-22T04:14:36;100640.00;;;10.08;100.00
61119;BME280;51448;51.660;5.824;2023-03-22T04:17:13;100640.97;;;10.05;100.00
61119;BME280;51448;51.660;5.824;2023-03-22T04:19:41;100646.22;;;10.05;100.00
61119;BME280;51448;51.660;5.824;2023-03-22T04:22:11;100640.97;;;10.05;100.00
61119;BME280;51448;51.660;5.824;2023-03-22T04:24:41;100630.50;;;10.04;100.00
61119;BME280;51448;51.660;5.824;2023-03-22T04:27:09;100631.47;;;10.01;100.00
61119;BME280;51448;51.660;5.824;2023-03-22T04:29:51;100623.66;;;9.98;100.00
61119;BME280;51448;51.660;5.824;2023-03-22T04:32:47;100618.50;;;9.95;100.00
61119;BME280;51448;51.660;5.824;2023-03-22T04:35:19;100620.31;;;9.93;100.00
61119;BME280;51448;51.660;5.824;2023-03-22T04:37:47;100609.84;;;9.92;100.00
61119;BME280;51448;51.660;5.824;2023-03-22T04:40:17;100621.25;;;9.91;100.00
61119;BME280;51448;51.660;5.824;2023-03-22T04:42:59;100615.19;;;9.89;100.00
61119;BME280;51448;51.660;5.824;2023-03-22T04:45:53;100613.50;;;9.86;100.00
61119;BME280;51448;51.660;5.824;2023-03-22T04:48:25;100610.88;;;9.86;100.00
61119;BME280;51448;51.660;5.824;2023-03-22T04:50:55;100611.78;;;9.85;100.00
61119;BME280;51448;51.660;5.824;2023-03-22T04:53:26;100616.19;;;9.84;100.00
61119;BME280;51448;51.660;5.824;2023-03-22T04:55:59;100597.84;;;9.83;100.00
61119;BME280;51448;51.660;5.824;2023-03-22T04:58:30;100601.34;;;9.82;100.00
61119;BME280;51448;51.660;5.824;2023-03-22T05:00:57;100598.78;;;9.80;100.00
61119;BME280;51448;51.660;5.824;2023-03-22T05:03:25;100597.06;;;9.79;100.00
61119;BME280;51448;51.660;5.824;2023-03-22T05:05:57;100602.34;;;9.78;100.00
61119;BME280;51448;51.660;5.824;2023-03-22T05:08:36;100594.56;;;9.75;100.00
61119;BME280;51448;51.660;5.824;2023-03-22T05:11:13;100597.19;;;9.75;100.00
61119;BME280;51448;51.660;5.824;2023-03-22T05:13:52;100604.25;;;9.73;100.00
61119;BME280;51448;51.660;5.824;2023-03-22T05:16:21;100607.72;;;9.73;100.00
61119;BME280;51448;51.660;5.824;2023-03-22T05:18:50;100601.63;;;9.73;100.00
61119;BME280;51448;51.660;5.824;2023-03-22T05:21:22;100605.97;;;9.74;100.00
61119;BME280;51448;51.660;5.824;2023-03-22T05:23:57;100601.63;;;9.73;100.00
61119;BME280;51448;51.660;5.824;2023-03-22T05:26:25;100600.69;;;9.74;100.00
61119;BME280;51448;51.660;5.824;2023-03-22T05:28:55;100606.78;;;9.76;100.00
61119;BME280;51448;51.660;5.824;2023-03-22T05:31:36;100591.16;;;9.71;100.00
61119;BME280;51448;51.660;5.824;2023-03-22T05:34:05;100595.53;;;9.72;100.00
61119;BME280;51448;51.660;5.824;2023-03-22T05:36:38;100590.16;;;9.75;100.00
61119;BME280;51448;51.660;5.824;2023-03-22T05:39:26;100603.25;;;9.77;100.00
61119;BME280;51448;51.660;5.824;2023-03-22T05:41:57;100609.34;;;9.79;100.00
61119;BME280;51448;51.660;5.824;2023-03-22T05:44:25;100603.16;;;9.80;100.00
61119;BME280;51448;51.660;5.824;2023-03-22T05:47:02;100601.34;;;9.82;100.00
61119;BME280;51448;51.660;5.824;2023-03-22T05:49:39;100605.78;;;9.80;100.00
61119;BME280;51448;51.660;5.824;2023-03-22T05:52:08;100604.03;;;9.80;100.00
61119;BME280;51448;51.660;5.824;2023-03-22T05:54:58;100596.09;;;9.82;100.00
61119;BME280;51448;51.660;5.824;2023-03-22T05:57:26;100580.34;;;9.82;100.00
61119;BME280;51448;51.660;5.824;2023-03-22T05:59:56;100581.22;;;9.82;100.00
61119;BME280;51448;51.660;5.824;2023-03-22T06:02:28;100588.19;;;9.83;100.00
61119;BME280;51448;51.660;5.824;2023-03-22T06:04:56;100595.19;;;9.83;100.00
61119;BME280;51448;51.660;5.824;2023-03-22T06:07:25;100602.16;;;9.84;100.00
61119;BME280;51448;51.660;5.824;2023-03-22T06:09:56;100603.09;;;9.83;100.00
61119;BME280;51448;51.660;5.824;2023-03-22T06:12:26;100590.81;;;9.83;100.00
61119;BME280;51448;51.660;5.824;2023-03-22T06:15:03;100589.94;;;9.83;100.00
61119;BME280;51448;51.660;5.824;2023-03-22T06:17:36;100598.69;;;9.83;100.00
61119;BME280;51448;51.660;5.824;2023-03-22T06:20:07;100589.03;;;9.84;100.00
61119;BME280;51448;51.660;5.824;2023-03-22T06:22:42;100599.53;;;9.84;100.00
61119;BME280;51448;51.660;5.824;2023-03-22T06:25:10;100598.66;;;9.85;100.00
61119;BME280;51448;51.660;5.824;2023-03-22T06:27:44;100596.00;;;9.86;100.00
61119;BME280;51448;51.660;5.824;2023-03-22T06:30:12;100587.16;;;9.89;100.00
61119;BME280;51448;51.660;5.824;2023-03-22T06:33:02;100581.91;;;9.89;100.00
61119;BME280;51448;51.660;5.824;2023-03-22T06:35:35;100587.97;;;9.91;100.00
61119;BME280;51448;51.660;5.824;2023-03-22T06:38:05;100585.22;;;9.94;100.00
61119;BME280;51448;51.660;5.824;2023-03-22T06:40:35;100579.91;;;9.97;100.00
61119;BME280;51448;51.660;5.824;2023-03-22T06:43:03;100576.28;;;10.01;100.00
61119;BME280;51448;51.660;5.824;2023-03-22T06:45:35;100582.25;;;10.06;100.00
61119;BME280;51448;51.660;5.824;2023-03-22T06:48:04;100575.91;;;10.14;100.00
61119;BME280;51448;51.660;5.824;2023-03-22T06:50:50;100580.88;;;10.23;100.00
61119;BME280;51448;51.660;5.824;2023-03-22T06:53:24;100583.31;;;10.31;100.00
61119;BME280;51448;51.660;5.824;2023-03-22T06:55:52;100594.59;;;10.34;100.00
61119;BME280;51448;51.660;5.824;2023-03-22T06:58:24;100589.22;;;10.37;100.00
61119;BME280;51448;51.660;5.824;2023-03-22T07:00:54;100583.97;;;10.37;100.00
61119;BME280;51448;51.660;5.824;2023-03-22T07:03:24;100589.22;;;10.37;100.00
61119;BME280;51448;51.660;5.824;2023-03-22T07:06:06;100582.16;;;10.39;100.00
61119;BME280;51448;51.660;5.824;2023-03-22T07:08:38;100586.50;;;10.40;100.00
61119;BME280;51448;51.660;5.824;2023-03-22T07:11:08;100593.28;;;10.47;100.00
61119;BME280;51448;51.660;5.824;2023-03-22T07:13:36;100589.56;;;10.55;100.00
61119;BME280;51448;51.660;5.824;2023-03-22T07:16:10;100593.72;;;10.62;100.00
61119;BME280;51448;51.660;5.824;2023-03-22T07:18:42;100589.88;;;10.72;100.00
61119;BME280;51448;51.660;5.824;2023-03-22T07:21:10;100593.13;;;10.80;100.00
61119;BME280;51448;51.660;5.824;2023-03-22T07:23:40;100590.28;;;10.86;100.00
61119;BME280;51448;51.660;5.824;2023-03-22T07:26:12;100586.53;;;10.94;100.00
61119;BME280;51448;51.660;5.824;2023-03-22T07:28:43;100585.41;;;11.01;100.00
61119;BME280;51448;51.660;5.824;2023-03-22T07:31:14;100594.72;;;11.11;99.42
61119;BME280;51448;51.660;5.824;2023-03-22T07:33:56;100589.38;;;11.14;99.01
61119;BME280;51448;51.660;5.824;2023-03-22T07:36:27;100582.31;;;11.15;98.82
61119;BME280;51448;51.660;5.824;2023-03-22T07:38:55;100598.97;;;11.15;99.00
61119;BME280;51448;51.660;5.824;2023-03-22T07:41:28;100588.44;;;11.15;98.75
61119;BME280;51448;51.660;5.824;2023-03-22T07:44:16;100586.72;;;11.14;98.48
61119;BME280;51448;51.660;5.824;2023-03-22T07:47:04;100593.69;;;11.15;98.26
61119;BME280;51448;51.660;5.824;2023-03-22T07:49:44;100599.84;;;11.16;98.19
61119;BME280;51448;51.660;5.824;2023-03-22T07:52:19;100600.66;;;11.18;98.22
61119;BME280;51448;51.660;5.824;2023-03-22T07:54:47;100603.16;;;11.21;98.31
61119;BME280;51448;51.660;5.824;2023-03-22T07:57:15;100610.03;;;11.25;98.45
61119;BME280;51448;51.660;5.824;2023-03-22T07:59:48;100609.84;;;11.31;97.76
61119;BME280;51448;51.660;5.824;2023-03-22T08:02:16;100605.34;;;11.35;97.18
61119;BME280;51448;51.660;5.824;2023-03-22T08:04:48;100610.59;;;11.35;97.39
61119;BME280;51448;51.660;5.824;2023-03-22T08:07:30;100606.94;;;11.39;97.02
61119;BME280;51448;51.660;5.824;2023-03-22T08:09:58;100601.56;;;11.42;97.01
61119;BME280;51448;51.660;5.824;2023-03-22T08:12:26;100600.44;;;11.49;97.28
61119;BME280;51448;51.660;5.824;2023-03-22T08:15:04;100595.75;;;11.57;96.97
61119;BME280;51448;51.660;5.824;2023-03-22T08:17:33;100590.38;;;11.60;96.09
61119;BME280;51448;51.660;5.824;2023-03-22T08:20:03;100602.63;;;11.61;95.69
61119;BME280;51448;51.660;5.824;2023-03-22T08:22:45;100602.63;;;11.61;95.19
61119;BME280;51448;51.660;5.824;2023-03-22T08:25:38;100610.53;;;11.61;94.58
61119;BME280;51448;51.660;5.824;2023-03-22T08:28:09;100606.16;;;11.60;94.34
61119;BME280;51448;51.660;5.824;2023-03-22T08:30:38;100614.03;;;11.62;94.53
61119;BME280;51448;51.660;5.824;2023-03-22T08:33:06;100616.47;;;11.66;94.48
61119;BME280;51448;51.660;5.824;2023-03-22T08:35:34;100614.56;;;11.72;94.42
61119;BME280;51448;51.660;5.824;2023-03-22T08:38:02;100613.34;;;11.80;93.46
61119;BME280;51448;51.660;5.824;2023-03-22T08:40:39;100616.63;;;11.87;93.20
61119;BME280;51448;51.660;5.824;2023-03-22T08:43:07;100611.16;;;11.93;93.25
61119;BME280;51448;51.660;5.824;2023-03-22T08:45:35;100603.81;;;12.01;92.65
61119;BME280;51448;51.660;5.824;2023-03-22T08:48:09;100609.78;;;12.06;92.37
61119;BME280;51448;51.660;5.824;2023-03-22T08:51:00;100587.63;;;12.12;91.85
61119;BME280;51448;51.660;5.824;2023-03-22T08:53:43;100592.66;;;12.18;92.40
61119;BME280;51448;51.660;5.824;2023-03-22T08:56:32;100593.06;;;12.30;92.16
61119;BME280;51448;51.660;5.824;2023-03-22T08:59:24;100604.25;;;12.36;91.13
61119;BME280;51448;51.660;5.824;2023-03-22T09:02:14;100596.09;;;12.42;90.80
61119;BME280;51448;51.660;5.824;2023-03-22T09:04:42;100581.56;;;12.54;89.63
61119;BME280;51448;51.660;5.824;2023-03-22T09:07:11;100581.25;;;12.62;89.31
61119;BME280;51448;51.660;5.824;2023-03-22T09:09:43;100580.28;;;12.64;89.57
61119;BME280;51448;51.660;5.824;2023-03-22T09:12:11;100583.59;;;12.70;88.57
61119;BME280;51448;51.660;5.824;2023-03-22T09:14:40;100583.41;;;12.74;88.88
61119;BME280;51448;51.660;5.824;2023-03-22T09:17:08;100592.75;;;12.81;87.79
61119;BME280;51448;51.660;5.824;2023-03-22T09:19:36;100591.00;;;12.82;87.13
61119;BME280;51448;51.660;5.824;2023-03-22T09:22:04;100575.09;;;12.83;86.98
61119;BME280;51448;51.660;5.824;2023-03-22T09:24:44;100580.25;;;12.86;86.97
61119;BME280;51448;51.660;5.824;2023-03-22T09:27:12;100565.94;;;12.92;87.01
61119;BME280;51448;51.660;5.824;2023-03-22T09:29:40;100563.06;;;12.98;86.41
61119;BME280;51448;51.660;5.824;2023-03-22T09:32:15;100562.84;;;13.03;86.08
61119;BME280;51448;51.660;5.824;2023-03-22T09:34:47;100566.28;;;13.05;85.26
61119;BME280;51448;51.660;5.824;2023-03-22T09:37:15;100568.66;;;13.11;83.86
61119;BME280;51448;51.660;5.824;2023-03-22T09:39:49;100565.88;;;13.14;83.85
61119;BME280;51448;51.660;5.824;2023-03-22T09:45:10;100557.69;;;13.20;83.75
61119;BME280;51448;51.660;5.824;2023-03-22T09:47:44;100572.56;;;13.23;83.29
61119;BME280;51448;51.660;5.824;2023-03-22T09:50:23;100561.13;;;13.22;82.20
61119;BME280;51448;51.660;5.824;2023-03-22T09:52:53;100561.22;;;13.21;82.71
61119;BME280;51448;51.660;5.824;2023-03-22T09:55:33;100567.28;;;13.23;82.51
61119;BME280;51448;51.660;5.824;2023-03-22T09:58:21;100567.28;;;13.23;83.28
61119;BME280;51448;51.660;5.824;2023-03-22T10:01:32;100565.53;;;13.22;83.24
61119;BME280;51448;51.660;5.824;2023-03-22T10:04:23;100569.97;;;13.21;82.88
61119;BME280;51448;51.660;5.824;2023-03-22T10:07:50;100563.13;;;13.17;82.48
61119;BME280;51448;51.660;5.824;2023-03-22T10:10:24;100568.66;;;13.11;81.86
61119;BME280;51448;51.660;5.824;2023-03-22T10:13:06;100563.50;;;13.08;82.43
61119;BME280;51448;51.660;5.824;2023-03-22T10:15:50;100563.63;;;13.05;82.31
61119;BME280;51448;51.660;5.824;2023-03-22T10:18:24;100573.34;;;13.04;82.83
61119;BME280;51448;51.660;5.824;2023-03-22T10:21:11;100558.22;;;13.08;82.96
61119;BME280;51448;51.660;5.824;2023-03-22T10:23:45;100560.00;;;13.07;82.38
61119;BME280;51448;51.660;5.824;2023-03-22T10:26:52;100568.88;;;13.06;81.83
61119;BME280;51448;51.660;5.824;2023-03-22T10:30:00;100555.84;;;13.02;82.46
61119;BME280;51448;51.660;5.824;2023-03-22T10:32:47;100558.63;;;12.99;82.68
61119;BME280;51448;51.660;5.824;2023-03-22T10:35:24;100555.31;;;12.94;81.82
61119;BME280;51448;51.660;5.824;2023-03-22T10:37:54;100559.88;;;12.90;82.07
61119;BME280;51448;51.660;5.824;2023-03-22T10:40:32;100565.25;;;12.87;82.46
61119;BME280;51448;51.660;5.824;2023-03-22T10:43:26;100568.03;;;12.84;82.68
61119;BME280;51448;51.660;5.824;2023-03-22T10:46:09;100573.63;;;12.76;83.99
61119;BME280;51448;51.660;5.824;2023-03-22T10:48:47;100580.81;;;12.73;84.40
61119;BME280;51448;51.660;5.824;2023-03-22T10:51:31;100577.53;;;12.67;84.76
61119;BME280;51448;51.660;5.824;2023-03-22T10:54:11;100576.09;;;12.59;84.77
61119;BME280;51448;51.660;5.824;2023-03-22T10:56:40;100576.53;;;12.48;85.47
61119;BME280;51448;51.660;5.824;2023-03-22T11:02:27;100575.47;;;12.30;86.64
61119;BME280;51448;51.660;5.824;2023-03-22T11:04:59;100590.59;;;12.26;87.32
61119;BME280;51448;51.660;5.824;2023-03-22T11:07:41;100580.13;;;12.23;87.48
61119;BME280;51448;51.660;5.824;2023-03-22T11:10:17;100588.19;;;12.20;87.74
61119;BME280;51448;51.660;5.824;2023-03-22T11:12:53;100575.84;;;12.21;89.03
61119;BME280;51448;51.660;5.824;2023-03-22T11:15:26;100577.41;;;12.26;89.29
61119;BME280;51448;51.660;5.824;2023-03-22T11:17:59;100581.69;;;12.29;89.48
61119;BME280;51448;51.660;5.824;2023-03-22T11:20:29;100583.38;;;12.30;89.57
61119;BME280;51448;51.660;5.824;2023-03-22T11:23:02;100572.72;;;12.33;89.65
61119;BME280;51448;51.660;5.824;2023-03-22T11:25:34;100576.22;;;12.34;89.50
61119;BME280;51448;51.660;5.824;2023-03-22T11:30:33;100566.66;;;12.31;90.40
61119;BME280;51448;51.660;5.824;2023-03-22T11:33:18;100577.81;;;12.38;90.95
61119;BME280;51448;51.660;5.824;2023-03-22T11:35:54;100578.63;;;12.40;90.66
61119;BME280;51448;51.660;5.824;2023-03-22T11:41:06;100580.50;;;12.36;90.75
61119;BME280;51448;51.660;5.824;2023-03-22T11:43:41;100578.81;;;12.35;91.13
61119;BME280;51448;51.660;5.824;2023-03-22T11:46:17;100593.03;;;12.31;91.11
61119;BME280;51448;51.660;5.824;2023-03-22T11:48:48;100583.38;;;12.30;91.47
61119;BME280;51448;51.660;5.824;2023-03-22T11:51:27;100582.59;;;12.28;91.47
61119;BME280;51448;51.660;5.824;2023-03-22T11:56:50;100576.59;;;12.24;91.86
61119;BME280;51448;51.660;5.824;2023-03-22T11:59:26;100575.56;;;12.28;92.18
61119;BME280;51448;51.660;5.824;2023-03-22T12:05:11;100577.22;;;12.31;92.17
61119;BME280;51448;51.660;5.824;2023-03-22T12:07:49;100568.34;;;12.32;92.35
61119;BME280;51448;51.660;5.824;2023-03-22T12:10:29;100572.78;;;12.32;91.81
61119;BME280;51448;51.660;5.824;2023-03-22T12:13:03;100578.06;;;12.32;92.06
61119;BME280;51448;51.660;5.824;2023-03-22T12:15:41;100565.84;;;12.29;92.07
61119;BME280;51448;51.660;5.824;2023-03-22T12:18:30;100553.47;;;12.31;92.23
61119;BME280;51448;51.660;5.824;2023-03-22T12:21:08;100552.44;;;12.35;92.11
61119;BME280;51448;51.660;5.824;2023-03-22T12:23:40;100555.81;;;12.39;91.74
61119;BME280;51448;51.660;5.824;2023-03-22T12:28:42;100543.09;;;12.48;91.39
61119;BME280;51448;51.660;5.824;2023-03-22T12:31:19;100537.56;;;12.55;91.56
61119;BME280;51448;51.660;5.824;2023-03-22T12:34:33;100551.28;;;12.63;91.61
61119;BME280;51448;51.660;5.824;2023-03-22T12:37:07;100546.03;;;12.63;90.87
61119;BME280;51448;51.660;5.824;2023-03-22T12:39:50;100544.19;;;12.65;90.96
61119;BME280;51448;51.660;5.824;2023-03-22T12:42:33;100545.13;;;12.64;90.57
61119;BME280;51448;51.660;5.824;2023-03-22T12:45:23;100542.53;;;12.62;90.52
61119;BME280;51448;51.660;5.824;2023-03-22T12:48:04;100539.84;;;12.64;90.13
61119;BME280;51448;51.660;5.824;2023-03-22T12:50:48;100553.94;;;12.63;90.27
61119;BME280;51448;51.660;5.824;2023-03-22T12:53:27;100545.16;;;12.62;90.49
61119;BME280;51448;51.660;5.824;2023-03-22T12:56:01;100546.03;;;12.63;90.41
61119;BME280;51448;51.660;5.824;2023-03-22T12:58:29;100551.28;;;12.63;90.33
61119;BME280;51448;51.660;5.824;2023-03-22T13:01:05;100554.81;;;12.63;90.45
61119;BME280;51448;51.660;5.824;2023-03-22T13:03:44;100546.16;;;12.60;90.23
61119;BME280;51448;51.660;5.824;2023-03-22T13:11:48;100551.69;;;12.54;89.98
61119;BME280;51448;51.660;5.824;2023-03-22T13:30:56;100529.06;;;12.48;90.26
61119;BME280;51448;51.660;5.824;2023-03-22T13:33:33;100540.34;;;12.52;90.16
61119;BME280;51448;51.660;5.824;2023-03-22T13:36:23;100541.00;;;12.57;89.99
61119;BME280;51448;51.660;5.824;2023-03-22T13:38:54;100534.03;;;12.56;90.25
61119;BME280;51448;51.660;5.824;2023-03-22T13:41:28;100537.44;;;12.58;89.62
61119;BME280;51448;51.660;5.824;2023-03-22T13:44:02;100542.72;;;12.58;89.26
61119;BME280;51448;51.660;5.824;2023-03-22T13:46:51;100547.25;;;12.54;89.16
61119;BME280;51448;51.660;5.824;2023-03-22T13:49:33;100544.78;;;12.51;89.56
61119;BME280;51448;51.660;5.824;2023-03-22T13:52:24;100544.88;;;12.48;89.37
61119;BME280;51448;51.660;5.824;2023-03-22T14:01:14;100527.16;;;12.52;89.54
61119;BME280;51448;51.660;5.824;2023-03-22T14:03:57;100535.00;;;12.53;89.36
61119;BME280;51448;51.660;5.824;2023-03-22T14:06:30;100540.19;;;12.55;89.21
61119;BME280;51448;51.660;5.824;2023-03-22T14:09:10;100540.19;;;12.55;89.16
61119;BME280;51448;51.660;5.824;2023-03-22T14:11:53;100527.00;;;12.55;89.46
61119;BME280;51448;51.660;5.824;2023-03-22T14:14:31;100531.38;;;12.56;89.70
61119;BME280;51448;51.660;5.824;2023-03-22T14:19:48;100526.97;;;12.56;89.81
61119;BME280;51448;51.660;5.824;2023-03-22T14:22:32;100525.97;;;12.59;89.84
61119;BME280;51448;51.660;5.824;2023-03-22T14:25:05;100525.16;;;12.57;89.87
61119;BME280;51448;51.660;5.824;2023-03-22T14:27:34;100521.56;;;12.59;89.92
61119;BME280;51448;51.660;5.824;2023-03-22T14:30:03;100525.91;;;12.60;89.82
61119;BME280;51448;51.660;5.824;2023-03-22T14:32:30;100519.78;;;12.60;89.61
61119;BME280;51448;51.660;5.824;2023-03-22T14:35:07;100522.38;;;12.61;89.80
61119;BME280;51448;51.660;5.824;2023-03-22T14:37:37;100510.81;;;12.64;90.08
61119;BME280;51448;51.660;5.824;2023-03-22T14:40:38;100509.78;;;12.68;90.13
61119;BME280;51448;51.660;5.824;2023-03-22T14:45:47;100511.34;;;12.72;90.62
61119;BME280;51448;51.660;5.824;2023-03-22T14:48:19;100505.09;;;12.75;90.64
61119;BME280;51448;51.660;5.824;2023-03-22T14:50:51;100516.38;;;12.78;91.00